Terminal Aerodrome Forecast
Issued by NWS

Home | Current Version | Previous Version | Text Only | Print | Product List | Glossary On
Versions: 1 2 3 4 5 6 7 8 9 10 11 12 13 14 15 16 17
395
FTUS42 KTBW 232320
TAFPIE
TAF
KPIE 232320Z 2400/2424 02012KT P6SM SCT035
     FM240200 35009KT P6SM SCT040
     FM240800 01006KT 6SM BR SCT005 BKN025
     FM241400 04008KT P6SM SCT020
     FM241900 34006KT P6SM SCT040=

USA.gov is the U.S. government's official web portal to all federal, state and local government web resources and services.